This is the latest recevied weather packets stored in our database for station/object DD3UTS-13. If no packets are shown the sender has not sent any weather packets the latest 1 day(s).
| Time | Temp. | Humidity | Pressure | Rain* | Wind** | Luminosity | Snow |
|---|---|---|---|---|---|---|---|
| 1836274706 | 18.33° C | 57% | 1019.7 hPa | 0 mm | 0 m/s | 0 W/m² | - |
| 1836274556 | 18.33° C | 56% | 1019.6 hPa | 0 mm | 2.68 m/s, 205° | 0 W/m² | - |
| 1836274255 | 18.33° C | 57% | 1019.6 hPa | 0 mm | 0 m/s | 0 W/m² | - |
| 1778009132 | 15° C | 79% | 1005.6 hPa | 0.51 mm | 2.68 m/s, 317° | 0 W/m² | - |
| 1778008832 | 15° C | 79% | 1005.4 hPa | 0.25 mm | 1.34 m/s, 335° | 0 W/m² | - |
| 1778008531 | 15° C | 79% | 1005.3 hPa | 0.25 mm | 0.89 m/s, 332° | 0 W/m² | - |
| 1778007632 | 15° C | 78% | 1005.1 hPa | 0.25 mm | 0 m/s | 0 W/m² | - |
| 1778007032 | 15° C | 78% | 1005.2 hPa | 0.25 mm | 0 m/s | 0 W/m² | - |
| 1778005531 | 15.56° C | 77% | 1005.6 hPa | 0.25 mm | 0 m/s | 0 W/m² | - |
| 1778003431 | 15.56° C | 77% | 1005.8 hPa | 0.25 mm | 1.79 m/s, 347° | 2 W/m² | - |
| 1777998931 | 17.22° C | 69% | 1006.2 hPa | 0.25 mm | 1.34 m/s, 340° | 23 W/m² | - |
| 1777998632 | 17.22° C | 69% | 1006.2 hPa | 0.25 mm | 1.79 m/s, 340° | 30 W/m² | - |
| 1777998031 | 17.78° C | 68% | 1006.3 hPa | 0.25 mm | 1.79 m/s, 350° | 52 W/m² | - |
| 1777997132 | 17.78° C | 67% | 1006.4 hPa | 0.25 mm | 1.34 m/s, 345° | 65 W/m² | - |
| 1777996231 | 17.78° C | 66% | 1006.5 hPa | 0.25 mm | 2.24 m/s, 307° | 79 W/m² | - |
| 1777995932 | 17.78° C | 66% | 1006.4 hPa | 0.25 mm | 2.24 m/s, 352° | 76 W/m² | - |
| 1777995632 | 18.33° C | 65% | 1006.4 hPa | 0.25 mm | 1.79 m/s, 357° | 78 W/m² | - |
| 1777994732 | 18.33° C | 64% | 1006.6 hPa | 0.25 mm | 2.24 m/s, 355° | 101 W/m² | - |
| 1777993832 | 18.89° C | 63% | 1006.7 hPa | 0.25 mm | 1.34 m/s, 347° | 122 W/m² | - |
| 1777992932 | 18.89° C | 61% | 1007 hPa | 0.25 mm | 2.24 m/s, 355° | 188 W/m² | - |
| 1777992631 | 19.44° C | 61% | 1007 hPa | 0.25 mm | 1.79 m/s, 322° | 251 W/m² | - |
| 1777992331 | 19.44° C | 62% | 1007 hPa | 0.25 mm | 1.79 m/s, 317° | 274 W/m² | - |
| 1777991731 | 19.44° C | 61% | 1007.1 hPa | 0.25 mm | 2.24 m/s, 347° | 230 W/m² | - |
| 1777991132 | 19.44° C | 61% | 1007.2 hPa | 0.25 mm | 1.79 m/s, 342° | 239 W/m² | - |
| 1777990832 | 20° C | 61% | 1007.3 hPa | 0.25 mm | 2.24 m/s, 355° | 250 W/m² | - |
* Rain latest 24 hours (hover to see other rain measurements)
** Current wind speed in m/s (hover to see current wind gust speed)